Time;durP1;ratioP1;P1;durP2;ratioP2;P2;SDS_P1;SDS_P2;PMS_P1;PMS_P2;Temp;Humidity;BMP_temperature;BMP_pressure;BME280_temperature;BME280_humidity;BME280_pressure;Samples;Min_cycle;Max_cycle;Signal;HPM_P1;HPM_P2
2022/01/11 00:00:58;;;;;;;15.10;8.43;;;;;;;6.90;nan;-24009.69;5037639;28;20178;-74
2022/01/11 00:03:23;;;;;;;12.37;7.97;;;;;;;7.01;nan;-24012.81;5044144;28;20186;-73
2022/01/11 00:05:58;;;;;;;12.67;8.00;;;;;;;6.66;nan;-24003.00;5045775;28;20268;-75
2022/01/11 00:08:30;;;;;;;12.43;7.90;;;;;;;6.65;nan;-24002.59;5042392;28;20731;-75
2022/01/11 00:11:03;;;;;;;12.80;7.80;;;;;;;6.87;nan;-24008.84;5038042;28;20242;-75
2022/01/11 00:13:31;;;;;;;13.07;7.67;;;;;;;6.87;nan;-24008.84;5048262;28;20667;-77
2022/01/11 00:15:56;;;;;;;10.97;7.23;;;;;;;6.88;nan;-24009.13;5051535;28;20175;-76
2022/01/11 00:18:22;;;;;;;12.10;7.97;;;;;;;6.51;nan;-23998.75;5051922;28;20178;-75
2022/01/11 00:20:48;;;;;;;13.13;8.17;;;;;;;6.89;nan;-24009.25;5026223;28;20183;-73
2022/01/11 00:25:41;;;;;;;12.43;7.63;;;;;;;6.44;nan;-23996.78;5051220;28;20190;-74
2022/01/11 00:28:08;;;;;;;11.90;7.73;;;;;;;6.75;nan;-24005.28;5051482;28;20257;-74
2022/01/11 00:30:37;;;;;;;13.37;8.17;;;;;;;6.71;nan;-24004.28;5051347;28;20269;-74
2022/01/11 00:33:06;;;;;;;12.40;8.00;;;;;;;6.55;nan;-23999.75;5051408;28;20225;-74
2022/01/11 00:35:45;;;;;;;14.83;8.50;;;;;;;6.31;nan;-23992.94;5051547;28;20240;-73
2022/01/11 00:38:16;;;;;;;19.80;9.07;;;;;;;6.46;nan;-23997.19;5030681;28;20168;-74
2022/01/11 00:40:46;;;;;;;14.53;8.30;;;;;;;6.78;nan;-24006.28;5031314;28;20164;-76
2022/01/11 00:43:13;;;;;;;17.47;8.90;;;;;;;6.39;nan;-23995.34;5033957;28;20202;-76
2022/01/11 00:45:38;;;;;;;15.53;8.93;;;;;;;6.74;nan;-24005.16;5034990;28;20670;-75
2022/01/11 00:48:04;;;;;;;13.17;8.07;;;;;;;6.38;nan;-23994.94;5035080;28;20250;-74
2022/01/11 00:50:32;;;;;;;14.73;8.53;;;;;;;6.72;nan;-24004.56;5034386;28;20191;-76
2022/01/11 00:52:58;;;;;;;13.97;7.60;;;;;;;6.60;nan;-24001.19;5035121;28;20227;-76
2022/01/11 00:55:23;;;;;;;12.20;7.33;;;;;;;6.46;nan;-23997.34;5050207;28;20244;-75
2022/01/11 00:57:49;;;;;;;12.10;7.83;;;;;;;6.28;nan;-23992.09;5052125;28;20183;-76
2022/01/11 01:00:14;;;;;;;12.73;8.30;;;;;;;6.50;nan;-23998.47;5037233;28;20265;-75
2022/01/11 01:02:41;;;;;;;14.47;8.37;;;;;;;6.05;nan;-23985.84;5036420;28;20194;-75
2022/01/11 01:05:07;;;;;;;10.93;7.77;;;;;;;6.19;nan;-23989.81;5036768;28;20260;-74
2022/01/11 01:07:32;;;;;;;11.60;8.23;;;;;;;6.54;nan;-23999.47;5036611;28;20186;-75
2022/01/11 01:10:05;;;;;;;13.93;8.13;;;;;;;6.30;nan;-23992.66;5017381;28;20200;-73
2022/01/11 01:12:31;;;;;;;12.70;7.43;;;;;;;5.98;nan;-23983.72;5035917;28;20234;-74
2022/01/11 01:14:57;;;;;;;12.80;8.53;;;;;;;6.13;nan;-23987.97;5035414;28;20219;-74
2022/01/11 01:17:22;;;;;;;12.60;8.23;;;;;;;6.49;nan;-23998.06;5036544;28;20641;-73
2022/01/11 01:19:48;;;;;;;12.80;8.00;;;;;;;6.05;nan;-23985.84;5037120;28;20305;-75
2022/01/11 01:22:14;;;;;;;13.33;7.70;;;;;;;6.51;nan;-23998.63;5036110;28;20186;-74
2022/01/11 01:24:39;;;;;;;12.83;7.90;;;;;;;6.30;nan;-23992.78;5035960;28;20194;-75
2022/01/11 01:27:05;;;;;;;13.97;7.77;;;;;;;6.01;nan;-23984.56;5036834;28;20202;-75
2022/01/11 01:29:30;;;;;;;12.70;7.57;;;;;;;6.04;nan;-23985.41;5037082;28;20194;-75
2022/01/11 01:31:56;;;;;;;11.37;7.70;;;;;;;6.35;nan;-23994.06;5034085;28;20206;-74
2022/01/11 01:34:23;;;;;;;12.73;7.97;;;;;;;6.57;nan;-24000.31;5039973;28;20198;-74
2022/01/11 01:36:49;;;;;;;10.37;6.93;;;;;;;6.21;nan;-23990.38;5035007;28;20182;-74
2022/01/11 01:39:15;;;;;;;9.17;6.60;;;;;;;6.44;nan;-23996.63;5038805;28;20198;-73
2022/01/11 01:41:44;;;;;;;11.90;7.63;;;;;;;5.88;nan;-23980.88;5043833;28;20265;-75
2022/01/11 01:44:10;;;;;;;10.17;6.87;;;;;;;6.33;nan;-23993.66;5053921;28;20182;-72
2022/01/11 01:46:36;;;;;;;10.53;6.87;;;;;;;6.33;nan;-23993.66;5054164;28;20228;-74
2022/01/11 01:49:02;;;;;;;9.93;6.83;;;;;;;6.15;nan;-23988.53;5053859;28;20183;-74
2022/01/11 01:51:29;;;;;;;8.97;6.60;;;;;;;6.21;nan;-23990.38;5054057;28;20653;-72
2022/01/11 01:53:55;;;;;;;10.47;6.33;;;;;;;5.78;nan;-23978.16;5052203;28;20236;-74
2022/01/11 01:56:22;;;;;;;10.97;7.27;;;;;;;6.18;nan;-23989.53;5041875;28;20199;-76
2022/01/11 01:58:48;;;;;;;9.60;6.43;;;;;;;5.97;nan;-23983.56;5052981;28;20217;-75
2022/01/11 02:01:14;;;;;;;9.63;6.60;;;;;;;5.82;nan;-23979.16;5053980;28;20178;-74
2022/01/11 02:03:41;;;;;;;9.30;6.70;;;;;;;6.13;nan;-23987.97;5047133;28;20188;-73
2022/01/11 02:06:11;;;;;;;13.67;7.43;;;;;;;6.07;nan;-23986.25;5036179;28;20190;-73
2022/01/11 02:08:38;;;;;;;11.30;7.30;;;;;;;6.01;nan;-23984.69;5054300;28;20705;-73
2022/01/11 02:11:05;;;;;;;11.23;7.20;;;;;;;6.00;nan;-23984.41;5035706;28;20199;-72
2022/01/11 02:13:31;;;;;;;13.67;7.43;;;;;;;5.53;nan;-23971.06;5045225;28;20195;-74
2022/01/11 02:15:57;;;;;;;12.83;7.60;;;;;;;5.92;nan;-23982.00;5039734;28;20648;-73
2022/01/11 02:18:25;;;;;;;11.97;7.80;;;;;;;5.85;nan;-23980.00;5036634;28;20190;-73
2022/01/11 02:20:52;;;;;;;12.43;8.33;;;;;;;5.72;nan;-23976.59;5035447;28;20234;-75
2022/01/11 02:23:19;;;;;;;13.00;7.47;;;;;;;5.61;nan;-23973.34;5019040;28;20179;-75
2022/01/11 02:25:45;;;;;;;11.03;7.60;;;;;;;5.39;nan;-23967.22;5039311;28;20646;-74
2022/01/11 02:28:15;;;;;;;11.63;7.93;;;;;;;5.21;nan;-23962.25;5053522;28;20178;-74
2022/01/11 02:30:41;;;;;;;11.50;7.23;;;;;;;5.43;nan;-23968.34;5044378;28;20183;-74
2022/01/11 02:33:13;;;;;;;13.57;8.67;;;;;;;5.58;nan;-23972.63;5043760;28;20719;-74
2022/01/11 02:35:39;;;;;;;12.23;7.90;;;;;;;5.04;nan;-23957.41;5040528;28;20195;-72
2022/01/11 02:38:04;;;;;;;12.33;8.33;;;;;;;5.21;nan;-23962.25;5039064;28;20179;-74
2022/01/11 02:40:30;;;;;;;14.57;8.33;;;;;;;5.28;nan;-23964.22;5037933;28;20262;-73
2022/01/11 02:42:55;;;;;;;15.70;8.63;;;;;;;5.60;nan;-23973.03;5035092;28;20564;-74
2022/01/11 02:45:21;;;;;;;11.27;7.40;;;;;;;5.49;nan;-23969.91;5034703;28;20194;-73
2022/01/11 02:47:49;;;;;;;11.73;6.93;;;;;;;5.41;nan;-23967.66;5026457;28;20210;-75
2022/01/11 02:50:16;;;;;;;14.57;7.60;;;;;;;5.03;nan;-23956.97;5038138;28;20644;-75
2022/01/11 02:52:42;;;;;;;11.43;7.37;;;;;;;5.35;nan;-23966.09;5040220;28;20583;-73
2022/01/11 02:55:13;;;;;;;10.57;7.07;;;;;;;5.10;nan;-23959.13;5037825;28;20183;-74
2022/01/11 02:57:38;;;;;;;11.70;7.60;;;;;;;5.25;nan;-23963.25;5035683;28;20175;-73
2022/01/11 03:00:14;;;;;;;12.43;7.43;;;;;;;4.75;nan;-23949.31;5035599;28;20171;-75
2022/01/11 03:02:39;;;;;;;15.63;7.93;;;;;;;5.20;nan;-23961.97;5037791;28;20209;-75
2022/01/11 03:05:08;;;;;;;11.97;7.70;;;;;;;4.95;nan;-23954.72;5037588;28;20198;-74
2022/01/11 03:07:33;;;;;;;12.23;7.70;;;;;;;5.25;nan;-23963.25;5033046;28;20183;-72
2022/01/11 03:10:12;;;;;;;14.57;7.33;;;;;;;5.14;nan;-23960.25;5034839;28;20216;-74
2022/01/11 03:12:40;;;;;;;11.47;7.17;;;;;;;5.28;nan;-23964.09;5021502;28;20230;-75
2022/01/11 03:15:06;;;;;;;11.77;6.93;;;;;;;4.83;nan;-23951.44;5032977;28;20213;-72
2022/01/11 03:17:32;;;;;;;12.07;6.93;;;;;;;4.95;nan;-23954.84;5033412;28;20277;-75
2022/01/11 03:19:57;;;;;;;11.93;6.70;;;;;;;4.85;nan;-23952.00;5033253;28;20186;-74
2022/01/11 03:22:23;;;;;;;11.07;6.80;;;;;;;4.78;nan;-23950.00;5032470;28;20179;-73
2022/01/11 03:24:48;;;;;;;11.97;6.40;;;;;;;5.15;nan;-23960.53;5032561;28;20183;-72
2022/01/11 03:27:14;;;;;;;13.17;6.43;;;;;;;4.99;nan;-23956.00;5033361;28;20206;-73
2022/01/11 03:29:40;;;;;;;10.30;6.00;;;;;;;5.15;nan;-23960.41;5035242;28;20240;-73
2022/01/11 03:32:07;;;;;;;10.93;6.53;;;;;;;5.22;nan;-23962.38;5032932;28;20298;-72
2022/01/11 03:34:33;;;;;;;12.77;6.33;;;;;;;5.28;nan;-23964.22;5034430;28;20237;-74
2022/01/11 03:36:59;;;;;;;9.03;5.93;;;;;;;5.32;nan;-23965.38;5033378;28;20185;-74
2022/01/11 03:39:25;;;;;;;9.27;6.00;;;;;;;5.17;nan;-23961.09;5033725;28;20183;-74
2022/01/11 03:41:51;;;;;;;9.27;5.93;;;;;;;4.93;nan;-23954.13;5034071;28;20183;-71
2022/01/11 03:44:17;;;;;;;10.07;6.27;;;;;;;5.43;nan;-23968.22;5015122;28;20571;-73
2022/01/11 03:46:42;;;;;;;10.00;5.63;;;;;;;4.93;nan;-23954.13;5034011;28;20210;-74
2022/01/11 03:49:08;;;;;;;7.57;5.07;;;;;;;5.31;nan;-23964.94;5032848;28;20194;-73
2022/01/11 03:51:37;;;;;;;8.83;5.40;;;;;;;4.92;nan;-23953.84;5032506;28;20687;-74
2022/01/11 03:54:10;;;;;;;7.53;4.73;;;;;;;5.25;nan;-23963.38;5032634;28;20577;-73
2022/01/11 03:56:35;;;;;;;6.87;4.93;;;;;;;5.18;nan;-23961.25;5037645;28;20559;-74
2022/01/11 03:59:06;;;;;;;8.00;4.87;;;;;;;4.84;nan;-23951.84;5030640;28;20182;-73
2022/01/11 04:01:36;;;;;;;8.03;4.73;;;;;;;4.99;nan;-23956.00;5035113;28;20215;-74
2022/01/11 04:04:03;;;;;;;7.27;5.00;;;;;;;5.03;nan;-23956.97;5036022;28;20183;-75
2022/01/11 04:06:28;;;;;;;7.73;4.87;;;;;;;5.05;nan;-23957.53;5033341;28;20674;-75
2022/01/11 04:08:54;;;;;;;6.03;4.40;;;;;;;4.69;nan;-23947.44;5033107;28;20194;-75
2022/01/11 04:11:20;;;;;;;6.43;4.10;;;;;;;5.31;nan;-23964.94;5023365;28;20281;-75
2022/01/11 04:13:46;;;;;;;5.67;4.13;;;;;;;4.86;nan;-23952.44;5034280;28;20186;-75
2022/01/11 04:16:11;;;;;;;6.47;4.33;;;;;;;4.99;nan;-23956.00;5040570;28;20178;-74
2022/01/11 04:18:37;;;;;;;6.97;4.30;;;;;;;5.18;nan;-23961.38;5050988;28;20178;-75
2022/01/11 04:21:03;;;;;;;8.87;4.20;;;;;;;4.69;nan;-23947.59;5048143;28;20178;-72
2022/01/11 04:23:29;;;;;;;6.17;4.57;;;;;;;4.98;nan;-23955.56;5038743;28;20178;-72
2022/01/11 04:25:55;;;;;;;7.87;4.67;;;;;;;5.02;nan;-23956.69;5030325;28;20928;-73
2022/01/11 04:28:23;;;;;;;6.87;4.87;;;;;;;4.90;nan;-23953.44;5030945;28;20680;-73
2022/01/11 04:30:50;;;;;;;7.73;5.43;;;;;;;5.04;nan;-23957.41;5047751;28;20185;-75
2022/01/11 04:33:16;;;;;;;8.60;5.63;;;;;;;4.84;nan;-23951.84;5040224;28;20193;-75
2022/01/11 04:35:44;;;;;;;7.73;5.77;;;;;;;4.94;nan;-23954.56;5040938;28;20215;-74
2022/01/11 04:38:10;;;;;;;7.53;5.30;;;;;;;4.64;nan;-23946.03;5045021;28;20179;-72
2022/01/11 04:40:36;;;;;;;7.93;5.30;;;;;;;4.96;nan;-23955.13;5043458;28;20182;-76
2022/01/11 04:43:01;;;;;;;9.73;5.03;;;;;;;4.85;nan;-23952.00;5041956;28;20175;-73
2022/01/11 04:45:27;;;;;;;7.70;5.47;;;;;;;4.73;nan;-23948.59;5039552;28;20247;-73
2022/01/11 04:47:56;;;;;;;7.50;5.07;;;;;;;4.67;nan;-23947.03;5039104;28;20174;-73
2022/01/11 04:50:24;;;;;;;7.20;4.67;;;;;;;4.81;nan;-23950.84;5039194;28;20215;-73
2022/01/11 04:52:50;;;;;;;7.67;5.13;;;;;;;4.44;nan;-23940.63;5038633;28;20293;-73
2022/01/11 04:55:16;;;;;;;6.57;4.77;;;;;;;4.91;nan;-23953.72;5040569;28;20212;-74
2022/01/11 04:57:41;;;;;;;7.67;4.47;;;;;;;4.56;nan;-23943.75;5036371;28;20182;-75
2022/01/11 05:00:08;;;;;;;6.00;4.47;;;;;;;4.96;nan;-23955.13;5020397;28;20186;-75
2022/01/11 05:02:33;;;;;;;7.10;4.70;;;;;;;4.95;nan;-23954.84;5037630;28;20316;-75
2022/01/11 05:04:59;;;;;;;6.70;4.47;;;;;;;4.92;nan;-23953.84;5039586;28;20651;-74
2022/01/11 05:07:24;;;;;;;5.27;4.00;;;;;;;4.99;nan;-23956.00;5038146;28;20204;-75
2022/01/11 05:09:51;;;;;;;5.43;3.93;;;;;;;5.03;nan;-23957.13;5036820;28;20562;-74
2022/01/11 05:12:17;;;;;;;6.07;4.43;;;;;;;4.83;nan;-23951.56;5020957;28;20682;-75
2022/01/11 05:14:42;;;;;;;5.77;4.10;;;;;;;5.01;nan;-23956.56;5049197;28;20202;-75
2022/01/11 05:17:08;;;;;;;5.90;4.00;;;;;;;5.03;nan;-23957.13;5030826;28;20211;-76
2022/01/11 05:19:33;;;;;;;6.17;4.07;;;;;;;4.80;nan;-23950.56;5023643;28;20557;-76
2022/01/11 05:21:59;;;;;;;5.97;4.07;;;;;;;4.93;nan;-23954.13;5037566;28;20186;-74
2022/01/11 05:24:24;;;;;;;6.37;4.33;;;;;;;5.04;nan;-23957.41;5018806;28;20201;-75
2022/01/11 05:26:49;;;;;;;6.83;4.20;;;;;;;4.87;nan;-23952.72;5037738;28;20878;-74
2022/01/11 05:29:15;;;;;;;6.93;4.10;;;;;;;4.74;nan;-23948.88;5019207;28;20202;-75
2022/01/11 05:31:40;;;;;;;7.33;4.70;;;;;;;4.97;nan;-23955.41;5034720;28;20243;-75
2022/01/11 05:34:06;;;;;;;6.33;4.53;;;;;;;4.79;nan;-23950.28;5038963;28;20183;-73
2022/01/11 05:36:31;;;;;;;6.57;4.60;;;;;;;4.58;nan;-23944.31;5036679;28;20663;-74
2022/01/11 05:38:57;;;;;;;5.73;4.33;;;;;;;4.92;nan;-23953.84;5037113;28;20659;-73
2022/01/11 05:41:22;;;;;;;6.00;4.37;;;;;;;4.80;nan;-23950.72;5040961;28;20175;-74
2022/01/11 05:43:48;;;;;;;7.00;4.50;;;;;;;4.83;nan;-23951.56;5037060;28;20212;-74
2022/01/11 05:46:13;;;;;;;6.67;5.00;;;;;;;4.58;nan;-23944.47;5043737;28;20182;-73
2022/01/11 05:48:42;;;;;;;7.60;5.13;;;;;;;4.87;nan;-23952.56;5043764;28;20248;-75
2022/01/11 05:51:07;;;;;;;6.97;4.67;;;;;;;4.78;nan;-23950.16;5036949;28;20271;-73
2022/01/11 05:53:33;;;;;;;7.33;4.90;;;;;;;4.47;nan;-23941.19;5036403;28;20551;-73
2022/01/11 05:55:58;;;;;;;6.83;5.00;;;;;;;4.87;nan;-23952.56;5036302;28;20178;-73
2022/01/11 05:58:24;;;;;;;6.30;4.70;;;;;;;4.79;nan;-23950.28;5020082;28;20256;-76
2022/01/11 06:00:49;;;;;;;7.40;5.10;;;;;;;4.50;nan;-23942.19;5027627;28;20194;-73
2022/01/11 06:03:15;;;;;;;7.87;5.60;;;;;;;4.45;nan;-23940.91;5043482;28;20669;-76
2022/01/11 06:05:40;;;;;;;8.13;5.40;;;;;;;4.43;nan;-23940.19;5050882;28;20179;-74
2022/01/11 06:08:06;;;;;;;7.27;4.80;;;;;;;4.86;nan;-23952.44;5049058;28;20335;-75
2022/01/11 06:10:32;;;;;;;9.17;5.00;;;;;;;4.46;nan;-23941.03;5039255;28;20635;-74
2022/01/11 06:12:58;;;;;;;8.70;5.00;;;;;;;4.59;nan;-23944.59;5038147;28;20260;-75
2022/01/11 06:15:23;;;;;;;7.43;5.20;;;;;;;4.69;nan;-23947.44;5040242;28;20180;-75
2022/01/11 06:17:50;;;;;;;7.23;5.20;;;;;;;4.51;nan;-23942.47;5037787;28;20713;-75
2022/01/11 06:20:15;;;;;;;8.53;5.90;;;;;;;4.31;nan;-23936.91;5040460;28;20604;-75
2022/01/11 06:22:41;;;;;;;8.53;5.77;;;;;;;4.67;nan;-23947.03;5021413;28;20269;-75
2022/01/11 06:25:08;;;;;;;8.90;6.17;;;;;;;4.78;nan;-23950.00;5039111;28;20179;-75
2022/01/11 06:27:34;;;;;;;9.23;5.90;;;;;;;4.84;nan;-23951.72;5036203;28;20708;-75
2022/01/11 06:30:00;;;;;;;9.87;5.63;;;;;;;4.56;nan;-23943.75;5038282;28;20179;-74
2022/01/11 06:32:25;;;;;;;10.00;6.43;;;;;;;4.27;nan;-23935.63;5050094;28;20210;-75
2022/01/11 06:34:53;;;;;;;9.33;6.23;;;;;;;4.38;nan;-23938.91;5047933;28;20187;-76
2022/01/11 06:37:19;;;;;;;10.50;7.17;;;;;;;4.82;nan;-23951.16;5046320;28;20546;-75
2022/01/11 06:39:44;;;;;;;9.83;6.53;;;;;;;4.39;nan;-23939.19;5031745;28;20272;-76
2022/01/11 06:42:09;;;;;;;11.33;7.17;;;;;;;4.60;nan;-23944.88;5046540;28;20189;-76
2022/01/11 06:44:35;;;;;;;9.83;6.97;;;;;;;4.31;nan;-23936.91;5049984;28;20235;-74
2022/01/11 06:47:00;;;;;;;12.73;8.20;;;;;;;4.55;nan;-23943.47;5047582;28;20221;-74
2022/01/11 06:49:26;;;;;;;11.83;7.63;;;;;;;4.44;nan;-23940.63;5046067;28;20243;-75
2022/01/11 06:51:51;;;;;;;11.37;7.87;;;;;;;4.37;nan;-23938.63;5045341;28;20238;-75
2022/01/11 06:54:17;;;;;;;14.43;8.60;;;;;;;4.52;nan;-23942.59;5045416;28;20251;-75
2022/01/11 06:56:42;;;;;;;14.37;9.47;;;;;;;4.44;nan;-23940.63;5045627;28;20269;-74
2022/01/11 06:59:08;;;;;;;15.07;9.13;;;;;;;4.48;nan;-23941.47;5028392;28;20209;-75
2022/01/11 07:01:34;;;;;;;14.93;9.27;;;;;;;4.88;nan;-23953.00;5039879;28;20182;-74
2022/01/11 07:04:00;;;;;;;15.00;8.73;;;;;;;4.37;nan;-23938.63;5040927;28;20199;-74
2022/01/11 07:06:25;;;;;;;15.70;9.73;;;;;;;4.44;nan;-23940.63;5050630;28;20210;-74
2022/01/11 07:08:51;;;;;;;13.13;9.23;;;;;;;4.69;nan;-23947.44;5033721;28;20573;-75
2022/01/11 07:11:16;;;;;;;15.53;9.47;;;;;;;4.97;nan;-23955.41;5043311;28;20289;-76
2022/01/11 07:13:42;;;;;;;16.10;10.37;;;;;;;4.69;nan;-23947.44;5033922;28;20182;-75
2022/01/11 07:16:07;;;;;;;16.93;10.33;;;;;;;4.80;nan;-23950.56;5033391;28;20512;-74
2022/01/11 07:18:32;;;;;;;16.43;10.07;;;;;;;4.38;nan;-23938.91;5040954;28;20304;-74
2022/01/11 07:20:58;;;;;;;16.67;10.53;;;;;;;4.81;nan;-23950.84;5043842;28;21079;-74
2022/01/11 07:23:23;;;;;;;18.80;11.07;;;;;;;4.65;nan;-23946.44;5035428;28;20195;-75
2022/01/11 07:25:49;;;;;;;18.07;11.37;;;;;;;4.42;nan;-23939.91;5016887;28;20187;-75
2022/01/11 07:28:15;;;;;;;17.77;11.10;;;;;;;4.79;nan;-23950.28;5036617;28;20182;-75
2022/01/11 07:30:41;;;;;;;17.13;10.67;;;;;;;4.80;nan;-23950.56;5022454;28;20620;-74
2022/01/11 07:33:07;;;;;;;18.07;11.37;;;;;;;4.73;nan;-23948.72;5037163;28;20176;-74
2022/01/11 07:35:33;;;;;;;19.57;12.10;;;;;;;4.93;nan;-23954.13;5036533;28;20204;-74
2022/01/11 07:37:59;;;;;;;19.90;11.90;;;;;;;4.87;nan;-23952.56;5035171;28;20194;-74
2022/01/11 07:40:24;;;;;;;19.17;12.37;;;;;;;4.41;nan;-23939.75;5045386;28;20258;-74
2022/01/11 07:42:51;;;;;;;15.67;10.20;;;;;;;4.93;nan;-23954.28;5051381;28;20374;-74
2022/01/11 07:45:16;;;;;;;14.87;9.63;;;;;;;4.92;nan;-23953.84;5050579;28;20174;-74
2022/01/11 07:47:42;;;;;;;14.83;9.33;;;;;;;4.45;nan;-23940.91;5051242;28;20244;-74
2022/01/11 07:50:08;;;;;;;13.53;8.20;;;;;;;4.83;nan;-23951.56;5051438;28;20162;-73
2022/01/11 07:52:34;;;;;;;11.73;8.07;;;;;;;4.57;nan;-23944.03;5050424;28;20232;-74
2022/01/11 07:55:00;;;;;;;12.97;8.37;;;;;;;4.78;nan;-23950.00;5044650;28;20187;-77
2022/01/11 07:57:26;;;;;;;12.33;7.77;;;;;;;4.93;nan;-23954.28;5042213;28;20210;-74
2022/01/11 07:59:52;;;;;;;12.13;8.20;;;;;;;4.71;nan;-23948.03;5050467;28;20672;-75
2022/01/11 08:02:17;;;;;;;13.47;8.73;;;;;;;4.30;nan;-23936.63;5033084;28;20595;-74
2022/01/11 08:04:43;;;;;;;18.33;10.97;;;;;;;4.79;nan;-23950.28;5032989;28;20221;-76
2022/01/11 08:07:10;;;;;;;15.90;9.97;;;;;;;4.88;nan;-23953.00;5044113;28;20187;-75
2022/01/11 08:09:35;;;;;;;16.40;10.60;;;;;;;4.69;nan;-23947.44;5051177;28;20187;-75
2022/01/11 08:12:01;;;;;;;14.43;9.83;;;;;;;4.16;nan;-23932.50;5032940;28;20210;-75
2022/01/11 08:14:26;;;;;;;13.93;8.77;;;;;;;4.11;nan;-23931.06;5050919;28;20179;-75
2022/01/11 08:16:52;;;;;;;14.13;9.30;;;;;;;4.48;nan;-23941.47;5051178;28;20170;-76
2022/01/11 08:19:24;;;;;;;10.40;7.70;;;;;;;4.56;nan;-23943.75;5051098;28;20175;-75
2022/01/11 08:21:50;;;;;;;11.40;7.60;;;;;;;4.68;nan;-23947.31;5051164;28;20242;-74
2022/01/11 08:24:15;;;;;;;10.10;7.20;;;;;;;4.84;nan;-23951.72;5050263;28;20308;-74
2022/01/11 08:26:41;;;;;;;10.20;6.77;;;;;;;4.81;nan;-23951.00;5049955;28;20676;-74
2022/01/11 08:29:06;;;;;;;11.87;7.10;;;;;;;4.66;nan;-23946.59;5049881;28;20174;-74
2022/01/11 08:31:31;;;;;;;9.63;6.50;;;;;;;4.27;nan;-23935.78;5050246;28;20202;-73
2022/01/11 08:33:57;;;;;;;10.53;6.30;;;;;;;4.81;nan;-23951.00;5050366;28;20229;-73
2022/01/11 08:36:22;;;;;;;10.77;6.47;;;;;;;5.00;nan;-23956.25;5031984;28;20321;-74
2022/01/11 08:38:48;;;;;;;8.90;6.03;;;;;;;4.88;nan;-23953.00;5031747;28;20182;-74
2022/01/11 08:41:13;;;;;;;9.07;6.07;;;;;;;4.42;nan;-23939.91;5050235;28;20665;-73
2022/01/11 08:43:39;;;;;;;8.33;5.77;;;;;;;4.93;nan;-23954.28;5032569;28;20167;-73
2022/01/11 08:46:04;;;;;;;7.10;5.33;;;;;;;4.67;nan;-23946.88;5050077;28;20206;-74
2022/01/11 08:48:30;;;;;;;11.60;6.30;;;;;;;4.77;nan;-23949.72;5050008;28;20236;-73
2022/01/11 08:50:56;;;;;;;10.57;5.73;;;;;;;4.76;nan;-23949.44;5032340;28;20211;-73
2022/01/11 08:53:22;;;;;;;9.20;5.40;;;;;;;4.88;nan;-23952.84;5051194;28;20344;-74
2022/01/11 08:55:51;;;;;;;8.30;5.73;;;;;;;4.33;nan;-23937.47;5032688;28;20269;-76
2022/01/11 08:58:20;;;;;;;7.23;5.30;;;;;;;4.59;nan;-23944.75;5043523;28;20194;-74
2022/01/11 09:00:46;;;;;;;8.30;6.03;;;;;;;4.29;nan;-23936.34;5026357;28;20275;-74
2022/01/11 09:03:12;;;;;;;9.20;6.07;;;;;;;4.65;nan;-23946.44;5052382;28;20269;-74
2022/01/11 09:05:37;;;;;;;8.80;6.20;;;;;;;4.30;nan;-23936.63;5054592;28;20634;-73
2022/01/11 09:08:04;;;;;;;9.37;6.77;;;;;;;4.80;nan;-23950.72;5054983;28;20189;-74
2022/01/11 09:10:29;;;;;;;9.00;6.17;;;;;;;4.39;nan;-23939.06;5052900;28;20191;-74
2022/01/11 09:12:55;;;;;;;9.53;6.13;;;;;;;4.37;nan;-23938.47;5047573;28;20700;-74
2022/01/11 09:15:20;;;;;;;9.17;6.33;;;;;;;4.43;nan;-23940.34;5044103;28;20563;-74
2022/01/11 09:17:46;;;;;;;9.53;5.80;;;;;;;4.37;nan;-23938.63;5047654;28;20198;-74
2022/01/11 09:20:13;;;;;;;10.23;6.03;;;;;;;4.84;nan;-23951.72;5029965;28;20225;-75
2022/01/11 09:22:40;;;;;;;10.10;6.60;;;;;;;4.72;nan;-23948.44;5040013;28;20183;-74
2022/01/11 09:25:07;;;;;;;8.73;6.10;;;;;;;4.30;nan;-23936.63;5039958;28;20182;-75
2022/01/11 09:27:32;;;;;;;11.20;7.07;;;;;;;4.73;nan;-23948.59;5041325;28;20188;-75
2022/01/11 09:29:58;;;;;;;12.33;7.50;;;;;;;4.42;nan;-23940.03;5042372;28;20174;-75
2022/01/11 09:32:25;;;;;;;11.40;7.70;;;;;;;4.57;nan;-23944.19;5045156;28;20336;-75
2022/01/11 09:34:50;;;;;;;11.67;7.87;;;;;;;4.40;nan;-23939.34;5036258;28;20269;-75
2022/01/11 09:37:16;;;;;;;13.70;8.60;;;;;;;4.78;nan;-23950.00;5047748;28;20322;-75
2022/01/11 09:39:43;;;;;;;12.33;8.03;;;;;;;4.65;nan;-23946.44;5044206;28;20190;-75
2022/01/11 09:42:09;;;;;;;13.83;8.23;;;;;;;4.49;nan;-23941.75;5053999;28;20210;-75
2022/01/11 09:44:38;;;;;;;14.00;7.97;;;;;;;4.47;nan;-23941.31;5047241;28;20261;-74
2022/01/11 09:47:09;;;;;;;15.13;9.10;;;;;;;4.52;nan;-23942.75;5035732;28;20566;-74
2022/01/11 09:49:34;;;;;;;19.37;9.83;;;;;;;4.61;nan;-23945.16;5047032;28;20222;-74
2022/01/11 09:52:05;;;;;;;14.60;9.57;;;;;;;4.66;nan;-23946.59;5047080;28;20733;-73
2022/01/11 09:54:30;;;;;;;12.13;7.80;;;;;;;4.62;nan;-23945.47;5052114;28;20205;-74
2022/01/11 09:56:55;;;;;;;12.97;7.40;;;;;;;4.25;nan;-23935.22;5053793;28;20580;-74
2022/01/11 09:59:21;;;;;;;11.00;7.50;;;;;;;4.71;nan;-23948.03;5053608;28;20175;-74
2022/01/11 10:01:46;;;;;;;11.90;7.33;;;;;;;4.88;nan;-23952.84;5053772;28;20532;-74
2022/01/11 10:04:14;;;;;;;13.57;7.80;;;;;;;4.25;nan;-23935.22;5033530;28;20203;-74
2022/01/11 10:06:42;;;;;;;10.83;6.57;;;;;;;4.81;nan;-23950.84;5053700;28;20569;-74
2022/01/11 10:09:10;;;;;;;10.40;6.43;;;;;;;4.84;nan;-23951.84;5052852;28;20600;-73
2022/01/11 10:11:42;;;;;;;12.03;6.60;;;;;;;4.86;nan;-23952.28;5030128;28;20191;-74
2022/01/11 10:14:18;;;;;;;13.73;6.63;;;;;;;4.84;nan;-23951.84;5051773;28;20178;-74
2022/01/11 10:16:43;;;;;;;11.37;6.60;;;;;;;4.45;nan;-23940.75;5053518;28;20543;-74
2022/01/11 10:19:23;;;;;;;9.73;6.73;;;;;;;4.87;nan;-23952.72;5035695;28;20270;-74
2022/01/11 10:21:50;;;;;;;10.97;7.30;;;;;;;4.94;nan;-23954.41;5033856;28;20576;-74
2022/01/11 10:24:32;;;;;;;10.63;6.80;;;;;;;4.84;nan;-23951.72;5033695;28;20203;-75
2022/01/11 10:27:01;;;;;;;12.33;7.50;;;;;;;4.83;nan;-23951.44;5033536;28;20174;-74
2022/01/11 10:29:41;;;;;;;13.40;7.60;;;;;;;4.57;nan;-23944.03;5032565;28;20639;-73
2022/01/11 10:32:23;;;;;;;9.93;6.30;;;;;;;4.83;nan;-23951.44;5032951;28;20203;-74
2022/01/11 10:34:52;;;;;;;8.67;5.90;;;;;;;4.36;nan;-23938.19;5032602;28;20174;-74
2022/01/11 10:37:28;;;;;;;9.07;5.67;;;;;;;4.69;nan;-23947.59;5015048;28;20186;-74
2022/01/11 10:40:05;;;;;;;7.93;5.47;;;;;;;4.91;nan;-23953.72;5032795;28;20155;-74
2022/01/11 10:42:33;;;;;;;9.10;6.33;;;;;;;4.69;nan;-23947.44;5032434;28;20647;-74
2022/01/11 10:45:10;;;;;;;9.00;6.13;;;;;;;4.29;nan;-23936.19;5035197;28;20179;-74
2022/01/11 10:47:41;;;;;;;8.53;5.30;;;;;;;4.32;nan;-23937.19;5043642;28;20665;-74
2022/01/11 10:50:09;;;;;;;9.90;5.63;;;;;;;4.59;nan;-23944.75;5049399;28;20171;-74
2022/01/11 10:52:35;;;;;;;7.73;5.17;;;;;;;4.61;nan;-23945.16;5049244;28;20233;-74
2022/01/11 10:55:03;;;;;;;9.43;5.53;;;;;;;4.51;nan;-23942.31;5045796;28;20199;-72
2022/01/11 10:57:32;;;;;;;6.70;4.80;;;;;;;4.10;nan;-23930.78;5051393;28;20648;-75
2022/01/11 11:00:22;;;;;;;7.67;5.17;;;;;;;4.56;nan;-23943.88;5031984;28;20179;-73
2022/01/11 11:03:18;;;;;;;8.20;5.90;;;;;;;4.54;nan;-23943.19;5049966;28;20191;-74
2022/01/11 11:05:47;;;;;;;7.67;5.50;;;;;;;4.50;nan;-23942.19;5032287;28;20674;-73
2022/01/11 11:08:16;;;;;;;8.40;5.77;;;;;;;4.03;nan;-23928.94;5047396;28;20186;-74
2022/01/11 11:10:55;;;;;;;9.37;5.90;;;;;;;4.51;nan;-23942.31;5045610;28;20217;-73
2022/01/11 11:13:32;;;;;;;9.33;5.67;;;;;;;4.47;nan;-23941.19;5042549;28;20274;-74
2022/01/11 11:16:12;;;;;;;9.17;6.00;;;;;;;4.55;nan;-23943.47;5049740;28;20178;-74
2022/01/11 11:18:44;;;;;;;8.23;5.63;;;;;;;4.50;nan;-23942.03;5051745;28;20233;-73
2022/01/11 11:21:27;;;;;;;9.40;5.87;;;;;;;4.49;nan;-23941.75;5044508;28;20258;-73
2022/01/11 11:24:00;;;;;;;9.50;6.40;;;;;;;4.35;nan;-23938.06;5022629;28;20182;-74
2022/01/11 11:26:30;;;;;;;12.87;6.13;;;;;;;4.19;nan;-23933.50;5045715;28;20187;-73
2022/01/11 11:28:56;;;;;;;9.40;5.80;;;;;;;4.36;nan;-23938.19;5051225;28;20179;-74
2022/01/11 11:31:22;;;;;;;10.83;6.37;;;;;;;4.22;nan;-23934.34;5051116;28;20206;-73
2022/01/11 11:33:50;;;;;;;9.53;6.67;;;;;;;4.38;nan;-23938.91;5032380;28;20198;-74
2022/01/11 11:36:17;;;;;;;7.90;5.83;;;;;;;3.98;nan;-23927.50;5049268;28;20209;-75
2022/01/11 11:39:04;;;;;;;10.67;6.70;;;;;;;4.49;nan;-23941.91;5046420;28;20192;-73
2022/01/11 11:41:31;;;;;;;9.83;6.13;;;;;;;4.59;nan;-23944.75;5033394;28;20182;-74
2022/01/11 11:44:13;;;;;;;10.67;6.47;;;;;;;4.53;nan;-23942.91;5051228;28;20174;-74
2022/01/11 11:46:42;;;;;;;10.23;6.37;;;;;;;4.55;nan;-23943.47;5041807;28;20665;-74